createdAt,value
2018-10-06T00:00:23.773Z,10.90
2018-10-06T00:02:53.418Z,10.90
2018-10-06T00:05:23.099Z,10.80
2018-10-06T00:07:52.982Z,10.80
2018-10-06T00:10:22.584Z,10.80
2018-10-06T00:13:00.297Z,10.80
2018-10-06T00:15:31.902Z,10.70
2018-10-06T00:18:01.449Z,10.70
2018-10-06T00:20:31.325Z,10.60
2018-10-06T00:23:00.945Z,10.60
2018-10-06T00:25:30.562Z,10.50
2018-10-06T00:28:00.227Z,10.50
2018-10-06T00:30:31.094Z,10.50
2018-10-06T00:33:00.709Z,10.50
2018-10-06T00:35:30.873Z,10.50
2018-10-06T00:38:00.464Z,10.40
2018-10-06T00:40:30.022Z,10.40
2018-10-06T00:42:59.921Z,10.40
2018-10-06T00:45:29.808Z,10.40
2018-10-06T00:47:59.371Z,10.40
2018-10-06T00:50:29.301Z,10.30
2018-10-06T00:52:58.865Z,10.30
2018-10-06T00:55:52.388Z,10.30
2018-10-06T00:58:22.353Z,10.30
2018-10-06T01:00:52.055Z,10.20
2018-10-06T01:03:22.162Z,10.20
2018-10-06T01:05:51.766Z,10.20
2018-10-06T01:08:21.770Z,10.20
2018-10-06T01:10:51.419Z,10.20
2018-10-06T01:13:35.044Z,10.10
2018-10-06T01:16:04.789Z,10.10
2018-10-06T01:18:34.406Z,10.10
2018-10-06T01:21:09.082Z,10.10
2018-10-06T01:23:39.114Z,10.00
2018-10-06T01:26:08.858Z,10.00
2018-10-06T01:28:38.548Z,10.00
2018-10-06T01:31:14.162Z,10.00
2018-10-06T01:33:43.857Z,9.90
2018-10-06T01:36:13.586Z,10.00
2018-10-06T01:38:43.791Z,9.90
2018-10-06T01:41:18.053Z,9.90
2018-10-06T01:43:47.811Z,9.90
2018-10-06T01:46:17.406Z,9.90
2018-10-06T01:48:47.406Z,9.90
2018-10-06T01:51:17.026Z,9.90
2018-10-06T01:53:46.629Z,9.90
2018-10-06T01:56:16.319Z,9.80
2018-10-06T01:58:48.257Z,9.80
2018-10-06T02:01:17.832Z,9.80
2018-10-06T02:03:47.363Z,9.80
2018-10-06T02:06:20.514Z,9.70
2018-10-06T02:08:50.079Z,9.70
2018-10-06T02:11:19.527Z,9.70
2018-10-06T02:13:49.746Z,9.70
2018-10-06T02:16:20.783Z,9.70
2018-10-06T02:18:50.289Z,9.70
2018-10-06T02:21:19.817Z,9.60
2018-10-06T02:23:58.970Z,9.60
2018-10-06T02:26:28.418Z,9.60
2018-10-06T02:28:58.037Z,9.50
2018-10-06T02:31:27.863Z,9.40
2018-10-06T02:34:04.231Z,9.30
2018-10-06T02:36:34.074Z,9.30
2018-10-06T02:39:04.087Z,9.20
2018-10-06T02:41:42.675Z,9.20
2018-10-06T02:44:12.147Z,9.20
2018-10-06T02:46:41.559Z,9.20
2018-10-06T02:49:11.053Z,9.20
2018-10-06T02:51:40.554Z,9.20
2018-10-06T02:54:09.987Z,9.20
2018-10-06T02:56:39.570Z,9.20
2018-10-06T02:59:09.338Z,9.20
2018-10-06T03:01:38.747Z,9.20
2018-10-06T03:04:08.538Z,9.20
2018-10-06T03:06:37.967Z,9.20
2018-10-06T03:09:09.002Z,9.20
2018-10-06T03:11:38.594Z,9.20
2018-10-06T03:14:10.366Z,9.20
2018-10-06T03:16:39.976Z,9.10
2018-10-06T03:19:09.457Z,9.10
2018-10-06T03:21:39.083Z,9.10
2018-10-06T03:24:08.666Z,9.10
2018-10-06T03:26:38.114Z,9.00
2018-10-06T03:29:07.905Z,8.90
2018-10-06T03:31:37.525Z,8.80
2018-10-06T03:34:07.022Z,8.80
2018-10-06T03:36:37.808Z,8.70
2018-10-06T03:39:08.578Z,8.60
2018-10-06T03:41:38.108Z,8.60
2018-10-06T03:44:07.570Z,8.60
2018-10-06T03:46:43.364Z,8.70
2018-10-06T03:49:12.891Z,8.70
2018-10-06T03:51:42.745Z,8.70
2018-10-06T03:54:13.443Z,8.80
2018-10-06T03:56:44.232Z,8.80
2018-10-06T03:59:14.383Z,8.80
2018-10-06T04:01:43.885Z,8.80
2018-10-06T04:04:14.656Z,8.80
2018-10-06T04:06:44.399Z,8.80
2018-10-06T04:09:13.866Z,8.80
2018-10-06T04:11:43.341Z,8.70
2018-10-06T04:14:13.186Z,8.70
2018-10-06T04:16:42.759Z,8.70
2018-10-06T04:19:12.223Z,8.70
2018-10-06T04:21:46.230Z,8.70
2018-10-06T04:24:16.531Z,8.70
2018-10-06T04:26:46.061Z,8.70
2018-10-06T04:29:16.182Z,8.60
2018-10-06T04:31:45.622Z,8.60
2018-10-06T04:34:15.241Z,8.60
2018-10-06T04:36:45.398Z,8.60
2018-10-06T04:39:15.861Z,8.60
2018-10-06T04:41:45.398Z,8.50
2018-10-06T04:44:19.048Z,8.60
2018-10-06T04:46:49.443Z,8.50
2018-10-06T04:49:19.351Z,8.50
2018-10-06T04:51:48.839Z,8.50
2018-10-06T04:54:18.369Z,8.50
2018-10-06T04:56:48.396Z,8.50
2018-10-06T04:59:24.125Z,8.50
2018-10-06T05:01:54.579Z,8.50
2018-10-06T05:04:24.300Z,8.50
2018-10-06T05:06:55.713Z,8.50
2018-10-06T05:09:25.342Z,8.50
2018-10-06T05:11:54.987Z,8.50
2018-10-06T05:14:24.657Z,8.50
2018-10-06T05:17:00.753Z,8.50
2018-10-06T05:19:30.192Z,8.50
2018-10-06T05:22:00.368Z,8.40
2018-10-06T05:24:30.050Z,8.50
2018-10-06T05:27:06.460Z,8.40
2018-10-06T05:29:36.235Z,8.40
2018-10-06T05:32:06.558Z,8.40
2018-10-06T05:34:36.283Z,8.40
2018-10-06T05:37:06.053Z,8.40
2018-10-06T05:39:35.954Z,8.40
2018-10-06T05:42:05.451Z,8.40
2018-10-06T05:44:39.569Z,8.30
2018-10-06T05:47:10.312Z,8.30
2018-10-06T05:49:39.947Z,8.30
2018-10-06T05:52:10.116Z,8.30
2018-10-06T05:54:39.666Z,8.30
2018-10-06T05:57:09.365Z,8.30
2018-10-06T05:59:38.886Z,8.30
2018-10-06T06:02:08.570Z,8.30
2018-10-06T06:04:38.466Z,8.30
2018-10-06T06:07:09.650Z,8.30
2018-10-06T06:09:39.252Z,8.30
2018-10-06T06:12:08.806Z,8.30
2018-10-06T06:14:38.624Z,8.20
2018-10-06T06:17:08.843Z,8.20
2018-10-06T06:19:38.528Z,8.20
2018-10-06T06:22:08.124Z,8.20
2018-10-06T06:24:37.764Z,8.30
2018-10-06T06:27:07.828Z,8.40
2018-10-06T06:29:37.974Z,8.30
2018-10-06T06:32:08.715Z,8.30
2018-10-06T06:34:38.389Z,8.30
2018-10-06T06:37:17.913Z,8.30
2018-10-06T06:39:47.627Z,8.40
2018-10-06T06:42:18.430Z,8.50
2018-10-06T06:44:48.062Z,8.50
2018-10-06T06:47:18.667Z,8.50
2018-10-06T06:49:49.274Z,8.50
2018-10-06T06:52:19.183Z,8.60
2018-10-06T06:54:48.877Z,8.60
2018-10-06T06:57:19.474Z,8.70
2018-10-06T06:59:49.391Z,8.70
2018-10-06T07:02:19.474Z,8.80
2018-10-06T07:04:49.411Z,8.90
2018-10-06T07:07:19.134Z,9.00
2018-10-06T07:09:49.985Z,9.30
2018-10-06T07:12:19.865Z,10.10
2018-10-06T07:14:52.584Z,10.40
2018-10-06T07:17:22.280Z,10.70
2018-10-06T07:19:51.837Z,11.30
2018-10-06T07:22:22.666Z,11.90
2018-10-06T07:24:53.236Z,12.40
2018-10-06T07:27:22.934Z,12.80
2018-10-06T07:29:52.986Z,13.20
2018-10-06T07:32:22.782Z,13.80
2018-10-06T07:34:52.433Z,13.80
2018-10-06T07:37:22.182Z,14.00
2018-10-06T07:39:52.018Z,14.30
2018-10-06T07:42:21.670Z,14.40
2018-10-06T07:44:51.626Z,14.90
2018-10-06T07:47:21.223Z,15.40
2018-10-06T07:49:50.805Z,16.00
2018-10-06T07:52:23.743Z,16.70
2018-10-06T07:54:53.788Z,17.40
2018-10-06T07:57:23.503Z,17.90
2018-10-06T07:59:54.490Z,18.50
2018-10-06T08:02:25.033Z,19.10
2018-10-06T08:04:56.414Z,19.50
2018-10-06T08:07:25.945Z,19.60
2018-10-06T08:09:56.776Z,19.80
2018-10-06T08:12:26.440Z,20.40
2018-10-06T08:14:56.134Z,20.70
2018-10-06T08:17:26.246Z,21.10
2018-10-06T08:19:56.586Z,21.70
2018-10-06T08:22:26.426Z,22.30
2018-10-06T08:24:56.197Z,22.50
2018-10-06T08:27:26.251Z,22.40
2018-10-06T08:29:56.335Z,22.60
2018-10-06T08:32:26.324Z,22.70
2018-10-06T08:34:56.117Z,23.00
2018-10-06T08:37:26.036Z,23.60
2018-10-06T08:39:55.891Z,23.70
2018-10-06T08:42:25.943Z,23.60
2018-10-06T08:44:56.931Z,22.70
2018-10-06T08:47:27.679Z,23.00
2018-10-06T08:49:57.553Z,23.00
2018-10-06T08:52:27.628Z,23.50
2018-10-06T08:54:57.307Z,23.70
2018-10-06T08:57:26.971Z,22.40
2018-10-06T08:59:57.978Z,22.70
2018-10-06T09:02:27.913Z,22.70
2018-10-06T09:04:57.541Z,22.40
2018-10-06T09:07:27.921Z,22.70
2018-10-06T09:09:57.592Z,22.90
2018-10-06T09:12:28.261Z,22.00
2018-10-06T09:15:00.247Z,21.60
2018-10-06T09:17:29.902Z,22.40
2018-10-06T09:19:59.631Z,23.10
2018-10-06T09:22:29.329Z,23.60
2018-10-06T09:24:58.916Z,23.80
2018-10-06T09:27:28.553Z,24.10
2018-10-06T09:30:00.728Z,24.00
2018-10-06T09:32:30.838Z,23.80
2018-10-06T09:35:00.803Z,24.60
2018-10-06T09:37:30.531Z,24.90
2018-10-06T09:40:00.215Z,24.80
2018-10-06T09:42:30.102Z,25.10
2018-10-06T09:45:03.758Z,24.60
2018-10-06T09:47:34.539Z,24.50
2018-10-06T09:50:05.229Z,24.50
2018-10-06T09:52:34.847Z,24.70
2018-10-06T09:55:04.777Z,24.30
2018-10-06T09:57:35.490Z,24.30
2018-10-06T10:00:17.771Z,24.70
2018-10-06T10:02:52.658Z,24.60
2018-10-06T10:05:34.322Z,24.80
2018-10-06T10:08:04.542Z,24.30
2018-10-06T10:10:34.513Z,24.10
2018-10-06T10:13:04.365Z,24.40
2018-10-06T10:15:36.308Z,24.80
2018-10-06T10:18:08.436Z,25.30
2018-10-06T10:20:38.376Z,25.80
2018-10-06T10:23:08.409Z,25.60
2018-10-06T10:25:38.899Z,25.40
2018-10-06T10:28:09.201Z,24.90
2018-10-06T10:30:42.416Z,25.10
2018-10-06T10:33:12.393Z,25.00
2018-10-06T10:35:42.374Z,24.70
2018-10-06T10:38:12.241Z,25.20
2018-10-06T10:40:42.755Z,25.80
2018-10-06T10:43:13.525Z,26.30
2018-10-06T10:45:43.538Z,25.60
2018-10-06T10:48:14.374Z,25.30
2018-10-06T10:50:44.666Z,25.20
2018-10-06T10:53:14.585Z,25.50
2018-10-06T10:55:44.192Z,26.10
2018-10-06T10:58:13.778Z,26.60
2018-10-06T11:00:43.951Z,27.10
2018-10-06T11:03:14.514Z,27.60
2018-10-06T11:05:44.495Z,27.80
2018-10-06T11:08:14.161Z,27.70
2018-10-06T11:10:44.248Z,27.10
2018-10-06T11:13:14.710Z,27.10
2018-10-06T11:15:53.502Z,27.10
2018-10-06T11:18:23.087Z,26.90
2018-10-06T11:20:53.274Z,27.30
2018-10-06T11:23:23.171Z,27.20
2018-10-06T11:25:52.962Z,27.50
2018-10-06T11:28:23.533Z,26.90
2018-10-06T11:30:53.123Z,26.70
2018-10-06T11:33:23.025Z,27.00
2018-10-06T11:35:54.878Z,26.80
2018-10-06T11:38:25.234Z,27.10
2018-10-06T11:40:54.932Z,26.80
2018-10-06T11:43:25.747Z,26.50
2018-10-06T11:45:55.824Z,26.60
2018-10-06T11:48:30.558Z,26.60
2018-10-06T11:51:00.328Z,27.00
2018-10-06T11:53:30.293Z,27.50
2018-10-06T11:56:00.357Z,27.50
2018-10-06T11:58:35.403Z,28.00
2018-10-06T12:01:05.128Z,28.30
2018-10-06T12:03:34.691Z,28.50
2018-10-06T12:06:04.306Z,28.30
2018-10-06T12:08:33.962Z,27.90
2018-10-06T12:11:03.723Z,27.70
2018-10-06T12:13:33.681Z,27.90
2018-10-06T12:16:03.718Z,27.50
2018-10-06T12:18:34.456Z,26.70
2018-10-06T12:21:05.147Z,26.80
2018-10-06T12:23:34.846Z,26.10
2018-10-06T12:26:04.684Z,26.30
2018-10-06T12:28:34.428Z,26.40
2018-10-06T12:31:04.514Z,26.50
2018-10-06T12:33:34.308Z,26.80
2018-10-06T12:36:04.872Z,27.00
2018-10-06T12:38:35.601Z,27.40
2018-10-06T12:41:06.789Z,27.10
2018-10-06T12:43:36.378Z,27.00
2018-10-06T12:46:13.110Z,26.50
2018-10-06T12:48:43.141Z,26.80
2018-10-06T12:51:13.204Z,26.80
2018-10-06T12:53:45.034Z,26.70
2018-10-06T12:56:15.742Z,26.30
2018-10-06T12:58:46.862Z,26.40
2018-10-06T13:01:16.690Z,26.50
2018-10-06T13:03:46.702Z,26.40
2018-10-06T13:06:16.309Z,26.50
2018-10-06T13:08:48.304Z,26.50
2018-10-06T13:11:19.055Z,26.60
2018-10-06T13:13:48.663Z,26.80
2018-10-06T13:16:19.934Z,27.00
2018-10-06T13:18:51.076Z,26.90
2018-10-06T13:21:20.662Z,26.70
2018-10-06T13:24:01.156Z,26.80
2018-10-06T13:26:35.918Z,26.60
2018-10-06T13:29:05.711Z,26.10
2018-10-06T13:31:36.014Z,25.70
2018-10-06T13:34:06.655Z,25.60
2018-10-06T13:36:37.688Z,25.70
2018-10-06T13:39:11.590Z,25.80
2018-10-06T13:41:41.458Z,26.00
2018-10-06T13:44:11.645Z,25.90
2018-10-06T13:46:42.409Z,25.60
2018-10-06T13:49:13.272Z,25.50
2018-10-06T13:51:42.826Z,25.70
2018-10-06T13:54:14.167Z,25.80
2018-10-06T13:56:44.946Z,26.00
2018-10-06T13:59:16.298Z,25.80
2018-10-06T14:01:55.921Z,25.80
2018-10-06T14:04:25.627Z,25.80
2018-10-06T14:06:56.084Z,25.50
2018-10-06T14:09:29.519Z,25.40
2018-10-06T14:12:00.593Z,25.30
2018-10-06T14:14:34.185Z,25.50
2018-10-06T14:17:04.048Z,25.30
2018-10-06T14:19:34.190Z,25.20
2018-10-06T14:22:05.005Z,25.20
2018-10-06T14:24:37.515Z,25.20
2018-10-06T14:27:07.257Z,25.50
2018-10-06T14:29:36.984Z,25.50
2018-10-06T14:32:06.800Z,25.40
2018-10-06T14:34:37.095Z,25.20
2018-10-06T14:37:07.531Z,24.70
2018-10-06T14:39:38.093Z,24.50
2018-10-06T14:42:08.776Z,24.50
2018-10-06T14:44:39.095Z,24.60
2018-10-06T14:47:12.540Z,24.70
2018-10-06T14:49:46.288Z,24.80
2018-10-06T14:52:18.889Z,24.90
2018-10-06T14:54:49.113Z,24.60
2018-10-06T14:57:19.632Z,24.50
2018-10-06T14:59:50.106Z,24.30
2018-10-06T15:02:20.224Z,24.30
2018-10-06T15:04:50.999Z,24.20
2018-10-06T15:07:20.946Z,24.10
2018-10-06T15:09:54.478Z,24.00
2018-10-06T15:12:24.846Z,24.00
2018-10-06T15:14:56.675Z,23.80
2018-10-06T15:17:28.241Z,23.80
2018-10-06T15:20:05.982Z,23.70
2018-10-06T15:22:35.680Z,23.70
2018-10-06T15:25:09.187Z,23.60
2018-10-06T15:27:38.978Z,23.60
2018-10-06T15:30:09.306Z,23.40
2018-10-06T15:32:39.691Z,23.40
2018-10-06T15:35:15.942Z,23.40
2018-10-06T15:37:45.611Z,23.30
2018-10-06T15:40:15.755Z,23.40
2018-10-06T15:42:45.649Z,23.30
2018-10-06T15:45:16.222Z,23.20
2018-10-06T15:47:46.324Z,23.10
2018-10-06T15:50:16.882Z,23.00
2018-10-06T15:52:47.376Z,23.00
2018-10-06T15:55:18.947Z,23.00
2018-10-06T15:57:49.159Z,23.00
2018-10-06T16:00:18.935Z,22.90
2018-10-06T16:02:49.670Z,22.90
2018-10-06T16:05:20.534Z,22.90
2018-10-06T16:07:51.938Z,22.80
2018-10-06T16:10:21.914Z,22.70
2018-10-06T16:12:52.870Z,22.50
2018-10-06T16:15:25.024Z,22.60
2018-10-06T16:17:54.732Z,22.50
2018-10-06T16:20:25.660Z,22.50
2018-10-06T16:22:55.887Z,22.50
2018-10-06T16:25:25.965Z,22.50
2018-10-06T16:27:57.149Z,22.50
2018-10-06T16:30:28.786Z,22.50
2018-10-06T16:32:59.255Z,22.40
2018-10-06T16:35:29.221Z,22.40
2018-10-06T16:37:58.896Z,22.20
2018-10-06T16:40:30.352Z,22.10
2018-10-06T16:43:02.481Z,22.10
2018-10-06T16:45:33.613Z,22.10
2018-10-06T16:48:07.195Z,22.10
2018-10-06T16:50:38.747Z,22.00
2018-10-06T16:53:08.705Z,22.00
2018-10-06T16:55:39.019Z,22.00
2018-10-06T16:58:08.667Z,21.90
2018-10-06T17:00:38.847Z,21.90
2018-10-06T17:03:19.627Z,21.90
2018-10-06T17:05:49.723Z,21.80
2018-10-06T17:08:20.413Z,21.70
2018-10-06T17:10:51.778Z,21.60
2018-10-06T17:13:24.388Z,21.50
2018-10-06T17:15:55.055Z,21.40
2018-10-06T17:18:27.942Z,21.30
2018-10-06T17:20:59.577Z,21.30
2018-10-06T17:23:31.285Z,21.20
2018-10-06T17:26:04.440Z,21.20
2018-10-06T17:28:35.960Z,21.10
2018-10-06T17:31:07.508Z,21.10
2018-10-06T17:33:40.424Z,21.00
2018-10-06T17:36:10.860Z,20.90
2018-10-06T17:38:41.644Z,20.70
2018-10-06T17:41:12.402Z,20.70
2018-10-06T17:43:42.616Z,20.60
2018-10-06T17:46:13.017Z,20.40
2018-10-06T17:48:55.880Z,20.40
2018-10-06T17:51:27.734Z,20.20
2018-10-06T17:54:03.035Z,19.50
2018-10-06T17:56:34.672Z,19.20
2018-10-06T17:59:07.335Z,19.00
2018-10-06T18:01:37.955Z,18.90
2018-10-06T18:04:08.838Z,18.90
2018-10-06T18:06:41.138Z,19.00
2018-10-06T18:09:11.885Z,19.00
2018-10-06T18:11:41.551Z,18.90
2018-10-06T18:14:11.504Z,18.80
2018-10-06T18:16:42.000Z,18.70
2018-10-06T18:19:11.762Z,18.80
2018-10-06T18:21:42.739Z,18.80
2018-10-06T18:24:13.431Z,18.80
2018-10-06T18:26:43.161Z,18.80
2018-10-06T18:29:14.824Z,18.80
2018-10-06T18:31:49.365Z,18.70
2018-10-06T18:34:19.944Z,18.70
2018-10-06T18:36:51.649Z,18.60
2018-10-06T18:39:42.568Z,18.60
2018-10-06T18:42:12.601Z,18.50
2018-10-06T18:44:42.871Z,18.40
2018-10-06T18:47:15.561Z,18.40
2018-10-06T18:49:47.690Z,18.40
2018-10-06T18:52:18.416Z,18.30
2018-10-06T18:54:49.440Z,18.20
2018-10-06T18:57:19.187Z,18.20
2018-10-06T18:59:51.424Z,18.10
2018-10-06T19:02:21.265Z,18.10
2018-10-06T19:04:51.153Z,17.90
2018-10-06T19:07:21.264Z,17.70
2018-10-06T19:09:53.091Z,17.70
2018-10-06T19:12:23.186Z,17.70
2018-10-06T19:14:56.790Z,17.60
2018-10-06T19:17:26.519Z,17.60
2018-10-06T19:19:56.220Z,17.50
2018-10-06T19:22:26.339Z,17.50
2018-10-06T19:24:56.246Z,17.50
2018-10-06T19:27:27.345Z,17.30
2018-10-06T19:29:57.544Z,17.20
2018-10-06T19:32:29.259Z,17.10
2018-10-06T19:35:00.517Z,17.10
2018-10-06T19:37:31.733Z,17.10
2018-10-06T19:40:05.128Z,17.10
2018-10-06T19:42:38.172Z,17.10
2018-10-06T19:45:10.902Z,17.10
2018-10-06T19:47:40.849Z,17.10
2018-10-06T19:50:11.250Z,17.10
2018-10-06T19:52:41.966Z,17.00
2018-10-06T19:55:11.937Z,17.00
2018-10-06T19:57:43.299Z,17.00
2018-10-06T20:00:12.930Z,17.00
2018-10-06T20:03:00.982Z,17.00
2018-10-06T20:05:31.002Z,16.90
2018-10-06T20:08:00.807Z,16.90
2018-10-06T20:10:34.665Z,16.90
2018-10-06T20:13:05.045Z,16.90
2018-10-06T20:15:34.852Z,16.80
2018-10-06T20:18:04.676Z,16.70
2018-10-06T20:20:34.778Z,16.70
2018-10-06T20:23:05.241Z,16.70
2018-10-06T20:25:35.062Z,16.70
2018-10-06T20:28:05.016Z,16.70
2018-10-06T20:30:34.832Z,16.70
2018-10-06T20:33:04.607Z,16.70
2018-10-06T20:35:36.003Z,16.70
2018-10-06T20:38:06.634Z,16.70
2018-10-06T20:40:36.801Z,16.70
2018-10-06T20:43:07.197Z,16.70
2018-10-06T20:45:46.110Z,16.70
2018-10-06T20:48:15.913Z,16.70
2018-10-06T20:50:45.850Z,16.70
2018-10-06T20:53:17.566Z,16.70
2018-10-06T20:55:48.463Z,16.70
2018-10-06T20:58:21.628Z,16.70
2018-10-06T21:00:52.947Z,16.70
2018-10-06T21:03:26.236Z,16.70
2018-10-06T21:05:56.302Z,16.70
2018-10-06T21:08:25.970Z,16.70
2018-10-06T21:10:55.587Z,16.70
2018-10-06T21:13:25.194Z,16.70
2018-10-06T21:15:54.872Z,16.60
2018-10-06T21:18:30.807Z,16.60
2018-10-06T21:21:02.237Z,16.60
2018-10-06T21:23:31.870Z,16.50
2018-10-06T21:26:03.027Z,16.60
2018-10-06T21:28:33.491Z,16.60
2018-10-06T21:31:03.213Z,16.60
2018-10-06T21:33:35.851Z,16.60
2018-10-06T21:36:12.723Z,16.50
2018-10-06T21:38:42.600Z,16.50
2018-10-06T21:41:12.367Z,16.50
2018-10-06T21:43:42.071Z,16.40
2018-10-06T21:46:11.932Z,16.30
2018-10-06T21:48:42.655Z,16.30
2018-10-06T21:51:17.351Z,16.20
2018-10-06T21:53:47.424Z,16.10
2018-10-06T21:56:17.203Z,16.00
2018-10-06T21:58:47.079Z,16.00
2018-10-06T22:01:30.611Z,15.90
2018-10-06T22:04:00.906Z,15.90
2018-10-06T22:06:30.643Z,15.80
2018-10-06T22:09:00.352Z,15.90
2018-10-06T22:11:29.909Z,15.90
2018-10-06T22:14:00.133Z,16.00
2018-10-06T22:16:30.854Z,15.90
2018-10-06T22:19:01.030Z,15.90
2018-10-06T22:21:32.978Z,15.90
2018-10-06T22:24:03.560Z,16.00
2018-10-06T22:26:34.724Z,15.90
2018-10-06T22:29:04.576Z,15.90
2018-10-06T22:31:34.493Z,15.90
2018-10-06T22:34:13.026Z,15.90
2018-10-06T22:36:43.687Z,15.90
2018-10-06T22:39:13.937Z,15.90
2018-10-06T22:41:43.651Z,15.90
2018-10-06T22:44:13.222Z,15.80
2018-10-06T22:46:43.440Z,15.70
2018-10-06T22:49:15.627Z,15.70
2018-10-06T22:51:53.041Z,15.70
2018-10-06T22:54:23.630Z,15.70
2018-10-06T22:56:54.082Z,15.60
2018-10-06T22:59:24.111Z,15.60
2018-10-06T23:01:54.244Z,15.50
2018-10-06T23:04:26.230Z,15.50
2018-10-06T23:06:55.906Z,15.50
2018-10-06T23:09:26.486Z,15.40
2018-10-06T23:11:56.355Z,15.40
2018-10-06T23:14:26.106Z,15.40
2018-10-06T23:16:55.981Z,15.30
2018-10-06T23:19:33.162Z,15.30
2018-10-06T23:22:02.932Z,15.30
2018-10-06T23:24:32.683Z,15.30
2018-10-06T23:27:03.143Z,15.20
2018-10-06T23:29:33.428Z,15.20
2018-10-06T23:32:03.902Z,15.10
2018-10-06T23:34:33.735Z,15.10
2018-10-06T23:37:08.443Z,15.10
2018-10-06T23:39:38.227Z,15.10
2018-10-06T23:42:07.989Z,15.00
2018-10-06T23:44:39.862Z,15.00
2018-10-06T23:47:09.947Z,15.00
2018-10-06T23:49:40.746Z,15.00
2018-10-06T23:52:10.416Z,15.00
2018-10-06T23:54:40.121Z,15.00
2018-10-06T23:57:09.802Z,15.00
2018-10-06T23:59:40.507Z,15.00
